createdAt,value
2023-03-30T00:02:07.826Z,5.38
2023-03-30T00:04:37.545Z,5.53
2023-03-30T00:07:05.579Z,5.45
2023-03-30T00:09:33.220Z,4.95
2023-03-30T00:12:03.819Z,4.90
2023-03-30T00:14:31.429Z,4.43
2023-03-30T00:17:07.259Z,4.32
2023-03-30T00:22:05.993Z,4.15
2023-03-30T00:24:34.007Z,4.80
2023-03-30T00:27:01.677Z,4.20
2023-03-30T00:29:29.748Z,4.43
2023-03-30T00:31:57.472Z,4.78
2023-03-30T00:34:24.969Z,5.32
2023-03-30T00:36:57.607Z,5.22
2023-03-30T00:39:26.678Z,4.57
2023-03-30T00:41:54.269Z,4.57
2023-03-30T00:44:59.141Z,4.00
2023-03-30T00:47:26.515Z,4.55
2023-03-30T00:49:53.735Z,4.40
2023-03-30T00:52:24.997Z,4.00
2023-03-30T00:54:52.642Z,3.92
2023-03-30T00:57:21.959Z,3.47
2023-03-30T00:59:52.215Z,4.07
2023-03-30T01:02:21.681Z,3.77
2023-03-30T01:04:53.162Z,3.10
2023-03-30T01:07:24.322Z,3.20
2023-03-30T01:09:52.904Z,3.35
2023-03-30T01:12:20.639Z,2.53
2023-03-30T01:14:48.299Z,3.17
2023-03-30T01:17:31.168Z,3.50
2023-03-30T01:20:14.884Z,3.38
2023-03-30T01:22:54.336Z,3.92
2023-03-30T01:25:24.772Z,3.63
2023-03-30T01:28:04.523Z,4.57
2023-03-30T01:31:10.085Z,4.10
2023-03-30T01:33:49.265Z,4.93
2023-03-30T01:36:35.115Z,4.50
2023-03-30T01:39:20.325Z,3.95
2023-03-30T01:42:19.572Z,3.92
2023-03-30T01:45:07.105Z,4.28
2023-03-30T01:48:11.911Z,4.90
2023-03-30T01:50:48.372Z,4.93
2023-03-30T01:53:18.891Z,5.93
2023-03-30T01:56:04.102Z,6.70
2023-03-30T01:58:54.264Z,6.32
2023-03-30T02:01:21.689Z,6.97
2023-03-30T02:03:53.564Z,7.93
2023-03-30T02:06:38.856Z,8.18
2023-03-30T02:09:10.439Z,8.63
2023-03-30T02:11:38.156Z,8.30
2023-03-30T02:14:05.541Z,7.75
2023-03-30T02:16:45.924Z,7.38
2023-03-30T02:19:13.859Z,6.65
2023-03-30T02:21:42.251Z,6.15
2023-03-30T02:24:19.346Z,5.35
2023-03-30T02:26:47.595Z,5.25
2023-03-30T02:29:15.350Z,5.60
2023-03-30T02:31:43.896Z,4.43
2023-03-30T02:34:18.291Z,4.20
2023-03-30T02:37:03.549Z,3.92
2023-03-30T02:39:37.239Z,3.33
2023-03-30T02:42:19.921Z,4.47
2023-03-30T02:45:15.316Z,4.65
2023-03-30T02:48:01.524Z,4.85
2023-03-30T02:50:36.122Z,5.10
2023-03-30T02:53:28.614Z,4.68
2023-03-30T02:56:29.443Z,5.38
2023-03-30T02:59:00.816Z,4.35
2023-03-30T03:04:00.123Z,4.32
2023-03-30T03:06:27.401Z,4.25
2023-03-30T03:08:56.398Z,4.15
2023-03-30T03:11:23.743Z,5.00
2023-03-30T03:13:51.444Z,5.07
2023-03-30T03:16:19.171Z,6.45
2023-03-30T03:18:46.483Z,5.30
2023-03-30T03:21:14.020Z,6.32
2023-03-30T03:23:41.500Z,6.82
2023-03-30T03:26:09.093Z,7.15
2023-03-30T03:28:36.896Z,6.60
2023-03-30T03:31:06.470Z,6.55
2023-03-30T03:36:02.695Z,6.10
2023-03-30T03:38:30.939Z,6.13
2023-03-30T03:40:58.658Z,5.85
2023-03-30T03:43:26.136Z,5.38
2023-03-30T03:45:53.981Z,7.65
2023-03-30T03:48:23.045Z,6.28
2023-03-30T03:50:54.578Z,7.20
2023-03-30T03:53:22.915Z,7.70
2023-03-30T03:55:50.425Z,7.60
2023-03-30T03:58:22.598Z,6.38
2023-03-30T04:00:50.160Z,5.50
2023-03-30T04:03:19.130Z,5.32
2023-03-30T04:05:49.696Z,4.72
2023-03-30T04:08:20.349Z,3.60
2023-03-30T04:10:47.577Z,3.10
2023-03-30T04:13:19.471Z,4.28
2023-03-30T04:15:47.161Z,4.32
2023-03-30T04:18:15.608Z,4.72
2023-03-30T04:20:42.992Z,3.67
2023-03-30T04:23:16.440Z,4.65
2023-03-30T04:25:45.742Z,4.75
2023-03-30T04:28:12.975Z,4.10
2023-03-30T04:30:41.065Z,3.75
2023-03-30T04:33:09.804Z,3.47
2023-03-30T04:35:37.220Z,4.43
2023-03-30T04:38:04.513Z,4.03
2023-03-30T04:40:33.093Z,3.67
2023-03-30T04:43:03.939Z,2.83
2023-03-30T04:45:31.838Z,3.38
2023-03-30T04:48:00.386Z,3.78
2023-03-30T04:50:27.822Z,3.92
2023-03-30T04:52:55.247Z,4.63
2023-03-30T04:55:22.502Z,3.90
2023-03-30T04:57:50.658Z,3.70
2023-03-30T05:00:18.684Z,4.43
2023-03-30T05:02:46.779Z,3.45
2023-03-30T05:05:14.103Z,4.32
2023-03-30T05:07:41.423Z,3.85
2023-03-30T05:10:11.988Z,3.35
2023-03-30T05:12:39.898Z,2.65
2023-03-30T05:15:07.721Z,3.00
2023-03-30T05:17:38.571Z,2.30
2023-03-30T05:20:10.063Z,2.53
2023-03-30T05:22:37.695Z,3.15
2023-03-30T05:25:07.491Z,2.67
2023-03-30T05:27:34.803Z,2.85
2023-03-30T05:30:02.069Z,2.72
2023-03-30T05:32:30.386Z,3.20
2023-03-30T05:34:57.712Z,2.95
2023-03-30T05:37:24.944Z,3.20
2023-03-30T05:39:52.208Z,3.63
2023-03-30T05:42:20.521Z,3.70
2023-03-30T05:44:47.799Z,3.28
2023-03-30T05:47:16.524Z,3.53
2023-03-30T05:49:43.963Z,3.58
2023-03-30T05:52:11.681Z,3.80
2023-03-30T05:54:39.322Z,3.17
2023-03-30T05:57:06.566Z,3.95
2023-03-30T05:59:34.074Z,3.92
2023-03-30T06:02:01.702Z,3.53
2023-03-30T06:04:29.519Z,2.58
2023-03-30T06:06:56.798Z,2.60
2023-03-30T06:09:25.518Z,3.55
2023-03-30T06:11:52.951Z,3.17
2023-03-30T06:14:20.219Z,2.50
2023-03-30T06:16:48.233Z,2.35
2023-03-30T06:19:16.166Z,2.78
2023-03-30T06:21:43.463Z,2.72
2023-03-30T06:24:10.982Z,2.90
2023-03-30T06:26:38.310Z,3.28
2023-03-30T06:29:08.425Z,3.70
2023-03-30T06:31:35.863Z,3.00
2023-03-30T06:34:03.136Z,2.42
2023-03-30T06:36:44.458Z,2.38
2023-03-30T06:39:13.827Z,3.20
2023-03-30T06:41:42.888Z,2.58
2023-03-30T06:44:10.439Z,2.92
2023-03-30T06:46:38.237Z,2.85
2023-03-30T06:49:05.497Z,2.80
2023-03-30T06:51:35.390Z,2.83
2023-03-30T06:54:03.004Z,3.60
2023-03-30T06:56:30.400Z,2.95
2023-03-30T06:58:57.693Z,3.60
2023-03-30T07:01:25.054Z,2.92
2023-03-30T07:03:53.657Z,2.50
2023-03-30T07:06:21.370Z,2.53
2023-03-30T07:08:49.097Z,2.13
2023-03-30T07:11:16.797Z,2.58
2023-03-30T07:13:44.532Z,2.30
2023-03-30T07:16:11.952Z,2.90
2023-03-30T07:18:39.211Z,3.45
2023-03-30T07:21:06.791Z,3.35
2023-03-30T07:23:35.925Z,3.30
2023-03-30T07:26:07.702Z,3.45
2023-03-30T07:28:38.238Z,3.03
2023-03-30T07:31:07.022Z,3.03
2023-03-30T07:33:34.977Z,3.05
2023-03-30T07:36:03.245Z,2.38
2023-03-30T07:38:31.084Z,2.78
2023-03-30T07:40:59.159Z,3.08
2023-03-30T07:43:27.363Z,3.17
2023-03-30T07:45:56.749Z,3.70
2023-03-30T07:48:24.199Z,3.03
2023-03-30T07:50:59.660Z,3.03
2023-03-30T07:53:26.944Z,2.80
2023-03-30T07:55:54.657Z,2.97
2023-03-30T07:58:22.503Z,2.70
2023-03-30T08:00:49.983Z,2.85
2023-03-30T08:03:18.358Z,2.35
2023-03-30T08:05:55.774Z,3.20
2023-03-30T08:08:24.149Z,3.10
2023-03-30T08:10:51.581Z,2.53
2023-03-30T08:13:22.099Z,2.58
2023-03-30T08:15:50.914Z,2.85
2023-03-30T08:18:18.251Z,3.08
2023-03-30T08:20:45.582Z,3.08
2023-03-30T08:23:13.095Z,2.85
2023-03-30T08:25:40.369Z,2.17
2023-03-30T08:28:07.953Z,2.03
2023-03-30T08:30:35.660Z,2.13
2023-03-30T08:33:05.000Z,1.73
2023-03-30T08:35:34.095Z,2.03
2023-03-30T08:38:01.370Z,1.73
2023-03-30T08:40:28.588Z,2.50
2023-03-30T08:42:59.061Z,2.60
2023-03-30T08:45:35.922Z,3.05
2023-03-30T08:48:03.664Z,3.05
2023-03-30T08:50:35.714Z,2.40
2023-03-30T08:53:06.428Z,3.03
2023-03-30T08:55:37.157Z,2.33
2023-03-30T08:58:25.767Z,2.00
2023-03-30T09:01:16.916Z,2.35
2023-03-30T09:03:50.638Z,2.80
2023-03-30T09:06:46.319Z,2.50
2023-03-30T09:09:16.953Z,2.42
2023-03-30T09:11:48.531Z,2.45
2023-03-30T09:14:25.781Z,1.95
2023-03-30T09:16:57.510Z,2.45
2023-03-30T09:19:31.367Z,2.53
2023-03-30T09:21:58.758Z,2.65
2023-03-30T09:24:26.496Z,2.03
2023-03-30T09:26:59.235Z,1.98
2023-03-30T09:32:06.536Z,2.13
2023-03-30T09:35:12.827Z,2.23
2023-03-30T09:37:40.049Z,2.22
2023-03-30T09:40:29.048Z,2.28
2023-03-30T09:43:14.485Z,1.65
2023-03-30T09:45:41.838Z,3.53
2023-03-30T09:48:09.399Z,2.58
2023-03-30T09:50:39.417Z,4.10
2023-03-30T09:53:17.143Z,2.63
2023-03-30T09:55:55.516Z,2.63
2023-03-30T09:58:33.283Z,2.78
2023-03-30T10:01:05.069Z,2.75
2023-03-30T10:03:34.130Z,2.47
2023-03-30T10:06:03.990Z,2.85
2023-03-30T10:08:31.620Z,2.67
2023-03-30T10:10:59.156Z,2.47
2023-03-30T10:13:32.591Z,3.10
2023-03-30T10:16:18.055Z,3.53
2023-03-30T10:18:47.974Z,4.30
2023-03-30T10:21:22.778Z,3.65
2023-03-30T10:24:03.145Z,3.58
2023-03-30T10:26:31.119Z,3.50
2023-03-30T10:29:07.440Z,4.57
2023-03-30T10:31:39.985Z,4.00
2023-03-30T10:34:19.198Z,4.03
2023-03-30T10:36:50.068Z,5.40
2023-03-30T10:39:47.033Z,4.47
2023-03-30T10:42:19.968Z,3.00
2023-03-30T10:45:00.483Z,2.90
2023-03-30T10:47:37.664Z,3.03
2023-03-30T10:50:27.913Z,3.15
2023-03-30T10:53:10.462Z,2.45
2023-03-30T10:55:54.395Z,3.00
2023-03-30T10:58:24.563Z,2.95
2023-03-30T11:01:03.782Z,2.87
2023-03-30T11:03:32.845Z,2.95
2023-03-30T11:06:10.988Z,3.53
2023-03-30T11:08:40.179Z,3.25
2023-03-30T11:11:09.353Z,3.58
2023-03-30T11:13:41.806Z,4.55
2023-03-30T11:16:14.241Z,4.28
2023-03-30T11:18:58.378Z,3.20
2023-03-30T11:21:36.324Z,3.72
2023-03-30T11:24:15.179Z,3.47
2023-03-30T11:26:49.763Z,3.53
2023-03-30T11:29:42.277Z,4.15
2023-03-30T11:32:27.860Z,3.30
2023-03-30T11:35:20.713Z,3.42
2023-03-30T11:38:20.445Z,2.50
2023-03-30T11:40:59.073Z,2.92
2023-03-30T11:43:28.979Z,3.40
2023-03-30T11:46:20.386Z,3.72
2023-03-30T11:49:09.385Z,2.97
2023-03-30T11:51:49.760Z,3.40
2023-03-30T11:54:23.117Z,3.15
2023-03-30T11:57:13.352Z,3.63
2023-03-30T12:00:08.263Z,3.53
2023-03-30T12:02:58.988Z,3.47
2023-03-30T12:05:43.233Z,3.25
2023-03-30T12:08:38.497Z,2.83
2023-03-30T12:11:12.725Z,2.80
2023-03-30T12:13:51.198Z,3.38
2023-03-30T12:16:44.744Z,2.88
2023-03-30T12:19:15.836Z,3.53
2023-03-30T12:21:49.115Z,3.55
2023-03-30T12:24:22.322Z,4.32
2023-03-30T12:27:04.568Z,4.80
2023-03-30T12:30:02.396Z,5.60
2023-03-30T12:32:33.262Z,5.13
2023-03-30T12:35:00.742Z,5.13
2023-03-30T12:37:28.896Z,6.70
2023-03-30T12:39:57.804Z,5.88
2023-03-30T12:42:39.620Z,5.35
2023-03-30T12:45:21.311Z,4.18
2023-03-30T12:47:58.771Z,3.80
2023-03-30T12:50:55.082Z,3.88
2023-03-30T12:53:36.328Z,5.13
2023-03-30T12:56:04.942Z,5.45
2023-03-30T12:59:06.780Z,4.22
2023-03-30T13:01:57.173Z,4.07
2023-03-30T13:04:25.930Z,6.10
2023-03-30T13:06:56.488Z,5.50
2023-03-30T13:09:27.934Z,5.40
2023-03-30T13:11:55.126Z,4.40
2023-03-30T13:14:28.019Z,4.75
2023-03-30T13:19:37.216Z,4.65
2023-03-30T13:22:11.938Z,4.13
2023-03-30T13:24:42.206Z,3.63
2023-03-30T13:27:18.767Z,3.50
2023-03-30T13:30:15.743Z,3.67
2023-03-30T13:33:04.715Z,3.40
2023-03-30T13:35:33.075Z,2.83
2023-03-30T13:38:30.735Z,2.95
2023-03-30T13:41:05.337Z,2.90
2023-03-30T13:43:51.306Z,2.70
2023-03-30T13:46:30.529Z,2.83
2023-03-30T13:49:14.909Z,3.53
2023-03-30T13:51:44.864Z,4.90
2023-03-30T13:54:21.521Z,3.70
2023-03-30T13:56:56.518Z,4.20
2023-03-30T13:59:26.256Z,4.03
2023-03-30T14:01:54.440Z,3.85
2023-03-30T14:04:22.140Z,2.95
2023-03-30T14:06:50.351Z,3.85
2023-03-30T14:09:23.522Z,2.80
2023-03-30T14:12:02.704Z,3.10
2023-03-30T14:14:34.709Z,3.40
2023-03-30T14:19:33.558Z,2.95
2023-03-30T14:22:04.804Z,2.75
2023-03-30T14:24:33.115Z,3.38
2023-03-30T14:27:14.936Z,2.97
2023-03-30T14:29:49.753Z,3.38
2023-03-30T14:32:23.184Z,3.58
2023-03-30T14:37:21.038Z,3.05
2023-03-30T14:39:53.741Z,4.13
2023-03-30T14:42:26.051Z,4.40
2023-03-30T14:44:59.433Z,5.75
2023-03-30T14:47:27.682Z,4.38
2023-03-30T14:49:59.063Z,5.00
2023-03-30T14:55:06.520Z,4.75
2023-03-30T14:57:38.498Z,4.82
2023-03-30T15:00:21.353Z,4.78
2023-03-30T15:02:51.954Z,5.85
2023-03-30T15:05:19.928Z,4.40
2023-03-30T15:07:49.088Z,3.80
2023-03-30T15:10:22.281Z,3.58
2023-03-30T15:12:51.658Z,3.83
2023-03-30T15:15:19.318Z,3.38
2023-03-30T15:17:52.543Z,4.35
2023-03-30T15:20:19.826Z,4.43
2023-03-30T15:22:48.923Z,3.05
2023-03-30T15:25:28.360Z,3.05
2023-03-30T15:28:01.514Z,3.03
2023-03-30T15:30:37.654Z,4.53
2023-03-30T15:33:07.533Z,7.60
2023-03-30T15:35:36.450Z,7.53
2023-03-30T15:38:10.845Z,8.35
2023-03-30T15:40:42.595Z,9.07
2023-03-30T15:45:47.473Z,7.82
2023-03-30T15:48:17.436Z,7.20
2023-03-30T15:50:47.057Z,7.03
2023-03-30T15:53:19.420Z,5.35
2023-03-30T15:55:50.705Z,4.68
2023-03-30T15:58:20.700Z,3.45
2023-03-30T16:00:48.686Z,3.13
2023-03-30T16:03:21.210Z,3.22
2023-03-30T16:05:48.428Z,3.08
2023-03-30T16:08:15.921Z,3.17
2023-03-30T16:10:45.215Z,3.25
2023-03-30T16:13:12.537Z,3.15
2023-03-30T16:15:39.747Z,2.95
2023-03-30T16:18:11.887Z,3.00
2023-03-30T16:20:39.204Z,3.15
2023-03-30T16:23:08.413Z,3.50
2023-03-30T16:25:44.840Z,3.33
2023-03-30T16:28:15.459Z,3.40
2023-03-30T16:30:43.452Z,3.03
2023-03-30T16:33:11.781Z,4.82
2023-03-30T16:35:39.088Z,4.13
2023-03-30T16:38:06.909Z,4.03
2023-03-30T16:40:43.004Z,4.43
2023-03-30T16:43:10.836Z,4.78
2023-03-30T16:45:38.501Z,4.65
2023-03-30T16:48:12.336Z,7.75
2023-03-30T16:50:51.702Z,7.45
2023-03-30T16:53:18.925Z,6.95
2023-03-30T16:55:46.246Z,5.72
2023-03-30T16:58:15.524Z,5.80
2023-03-30T17:00:49.311Z,5.40
2023-03-30T17:03:17.986Z,4.00
2023-03-30T17:05:50.081Z,3.60
2023-03-30T17:08:23.603Z,2.88
2023-03-30T17:10:51.996Z,3.40
2023-03-30T17:13:29.654Z,3.30
2023-03-30T17:16:17.764Z,3.65
2023-03-30T17:18:45.137Z,3.38
2023-03-30T17:21:16.936Z,3.35
2023-03-30T17:23:45.164Z,3.13
2023-03-30T17:26:12.900Z,3.95
2023-03-30T17:28:42.172Z,3.58
2023-03-30T17:31:18.057Z,3.58
2023-03-30T17:33:46.236Z,3.70
2023-03-30T17:36:16.898Z,3.20
2023-03-30T17:38:47.324Z,3.38
2023-03-30T17:41:16.714Z,3.25
2023-03-30T17:43:45.338Z,3.75
2023-03-30T17:46:15.144Z,3.53
2023-03-30T17:48:43.069Z,3.80
2023-03-30T17:51:11.967Z,4.05
2023-03-30T17:53:39.297Z,4.13
2023-03-30T17:56:13.064Z,3.80
2023-03-30T17:58:40.467Z,3.83
2023-03-30T18:01:08.970Z,4.15
2023-03-30T18:03:39.401Z,3.83
2023-03-30T18:06:07.440Z,3.88
2023-03-30T18:08:36.396Z,3.78
2023-03-30T18:11:07.201Z,3.50
2023-03-30T18:13:36.154Z,3.72
2023-03-30T18:16:03.993Z,4.43
2023-03-30T18:18:33.157Z,3.58
2023-03-30T18:21:05.179Z,4.18
2023-03-30T18:23:38.042Z,3.92
2023-03-30T18:26:11.196Z,4.25
2023-03-30T18:28:44.546Z,4.25
2023-03-30T18:31:13.300Z,4.03
2023-03-30T18:33:40.757Z,3.83
2023-03-30T18:36:13.594Z,4.28
2023-03-30T18:38:41.351Z,3.85
2023-03-30T18:41:11.566Z,4.22
2023-03-30T18:43:39.471Z,4.22
2023-03-30T18:46:07.348Z,5.05
2023-03-30T18:48:35.808Z,5.15
2023-03-30T18:51:03.804Z,5.05
2023-03-30T18:53:36.745Z,5.97
2023-03-30T18:56:05.370Z,5.93
2023-03-30T18:58:41.794Z,6.93
2023-03-30T19:01:15.884Z,6.15
2023-03-30T19:03:44.980Z,7.20
2023-03-30T19:06:13.734Z,7.85
2023-03-30T19:08:41.151Z,6.78
2023-03-30T19:11:08.502Z,7.38
2023-03-30T19:13:36.741Z,7.40
2023-03-30T19:16:06.128Z,6.18
2023-03-30T19:18:33.880Z,6.80
2023-03-30T19:21:01.492Z,8.43
2023-03-30T19:23:30.512Z,9.73
2023-03-30T19:25:58.210Z,10.60
2023-03-30T19:28:25.720Z,9.95
2023-03-30T19:30:53.363Z,9.82
2023-03-30T19:33:21.170Z,9.48
2023-03-30T19:35:48.577Z,9.02
2023-03-30T19:38:16.405Z,8.90
2023-03-30T19:40:43.714Z,8.65
2023-03-30T19:43:11.272Z,7.20
2023-03-30T19:45:38.630Z,6.88
2023-03-30T19:48:06.264Z,6.00
2023-03-30T19:50:33.837Z,6.15
2023-03-30T19:53:01.596Z,6.80
2023-03-30T19:55:29.583Z,5.68
2023-03-30T19:57:56.846Z,5.80
2023-03-30T20:00:24.525Z,6.22
2023-03-30T20:03:11.787Z,5.88
2023-03-30T20:05:39.360Z,6.80
2023-03-30T20:08:21.035Z,6.63
2023-03-30T20:10:52.467Z,6.82
2023-03-30T20:13:22.103Z,5.95
2023-03-30T20:15:55.907Z,6.30
2023-03-30T20:18:23.868Z,6.38
2023-03-30T20:20:51.138Z,6.93
2023-03-30T20:23:18.442Z,6.45
2023-03-30T20:25:50.328Z,5.70
2023-03-30T20:28:21.578Z,5.20
2023-03-30T20:30:49.237Z,6.00
2023-03-30T20:33:16.720Z,4.88
2023-03-30T20:35:44.504Z,5.32
2023-03-30T20:38:11.764Z,5.75
2023-03-30T20:40:39.880Z,5.18
2023-03-30T20:43:10.052Z,5.35
2023-03-30T20:45:46.274Z,5.68
2023-03-30T20:48:27.126Z,4.65
2023-03-30T20:50:54.989Z,5.23
2023-03-30T20:53:23.002Z,4.10
2023-03-30T20:55:50.536Z,4.22
2023-03-30T20:58:18.105Z,3.90
2023-03-30T21:00:47.449Z,3.58
2023-03-30T21:03:15.382Z,4.30
2023-03-30T21:05:42.665Z,4.05
2023-03-30T21:08:09.947Z,3.78
2023-03-30T21:10:41.215Z,3.67
2023-03-30T21:13:09.187Z,4.00
2023-03-30T21:15:36.680Z,3.67
2023-03-30T21:18:04.136Z,4.18
2023-03-30T21:20:31.472Z,3.75
2023-03-30T21:22:58.769Z,3.67
2023-03-30T21:25:26.050Z,3.92
2023-03-30T21:27:53.342Z,4.70
2023-03-30T21:30:20.824Z,3.90
2023-03-30T21:32:59.860Z,3.67
2023-03-30T21:35:27.596Z,4.32
2023-03-30T21:37:54.998Z,4.22
2023-03-30T21:40:22.265Z,2.72
2023-03-30T21:42:49.542Z,4.13
2023-03-30T21:45:17.895Z,3.78
2023-03-30T21:47:45.346Z,3.67
2023-03-30T21:50:12.660Z,2.97
2023-03-30T21:52:40.052Z,3.38
2023-03-30T21:55:07.681Z,3.53
2023-03-30T21:57:35.230Z,3.35
2023-03-30T22:00:05.434Z,3.13
2023-03-30T22:02:52.612Z,3.70
2023-03-30T22:05:20.634Z,3.30
2023-03-30T22:07:47.884Z,3.03
2023-03-30T22:10:15.203Z,3.97
2023-03-30T22:12:46.864Z,3.22
2023-03-30T22:15:14.435Z,3.25
2023-03-30T22:17:42.761Z,3.13
2023-03-30T22:20:11.780Z,3.30
2023-03-30T22:22:39.558Z,4.03
2023-03-30T22:25:07.007Z,4.18
2023-03-30T22:27:36.010Z,4.45
2023-03-30T22:30:03.723Z,4.57
2023-03-30T22:32:34.638Z,5.00
2023-03-30T22:35:02.089Z,5.07
2023-03-30T22:37:29.952Z,5.45
2023-03-30T22:39:57.819Z,5.13
2023-03-30T22:42:25.110Z,6.40
2023-03-30T22:44:52.354Z,5.30
2023-03-30T22:47:19.705Z,6.47
2023-03-30T22:49:47.360Z,5.32
2023-03-30T22:52:14.691Z,5.82
2023-03-30T22:54:41.978Z,6.35
2023-03-30T22:57:09.226Z,6.43
2023-03-30T22:59:36.689Z,6.40
2023-03-30T23:02:08.175Z,5.82
2023-03-30T23:04:36.302Z,6.22
2023-03-30T23:07:04.205Z,5.43
2023-03-30T23:09:32.124Z,6.30
2023-03-30T23:12:00.312Z,5.85
2023-03-30T23:14:27.825Z,5.18
2023-03-30T23:16:57.742Z,5.05
2023-03-30T23:19:26.009Z,4.63
2023-03-30T23:21:54.399Z,4.57
2023-03-30T23:24:21.687Z,4.25
2023-03-30T23:26:48.995Z,3.90
2023-03-30T23:29:17.057Z,3.42
2023-03-30T23:31:44.360Z,3.50
2023-03-30T23:34:12.989Z,3.50
2023-03-30T23:36:40.261Z,3.78
2023-03-30T23:39:09.262Z,4.35
2023-03-30T23:41:36.616Z,3.75
2023-03-30T23:44:03.882Z,4.00
2023-03-30T23:46:31.270Z,4.07
2023-03-30T23:48:58.615Z,4.93
2023-03-30T23:51:26.075Z,5.50
2023-03-30T23:54:00.151Z,5.28
2023-03-30T23:56:30.033Z,4.22
2023-03-30T23:58:57.393Z,4.22
